Time;durP1;ratioP1;P1;durP2;ratioP2;P2;SDS_P1;SDS_P2;PMS_P1;PMS_P2;Temp;Humidity;BMP_temperature;BMP_pressure;BME280_temperature;BME280_humidity;BME280_pressure;Samples;Min_cycle;Max_cycle;Signal;HPM_P1;HPM_P2
2022/09/07 00:00:41;;;;;;;4.28;2.65;;;19.20;67.10;;;;;;5029941;28;20037;-65
2022/09/07 00:03:07;;;;;;;3.67;2.20;;;19.20;67.00;;;;;;5032437;28;20476;-65
2022/09/07 00:05:33;;;;;;;4.75;2.40;;;19.10;67.00;;;;;;5032005;28;20036;-65
2022/09/07 00:07:59;;;;;;;3.03;1.92;;;19.20;67.10;;;;;;5031751;28;20028;-65
2022/09/07 00:10:25;;;;;;;4.35;2.20;;;19.10;67.20;;;;;;5031151;28;20039;-65
2022/09/07 00:12:52;;;;;;;6.75;2.65;;;19.10;67.30;;;;;;5030945;28;20026;-65
2022/09/07 00:15:18;;;;;;;5.53;2.85;;;19.10;67.30;;;;;;5031462;28;20033;-66
2022/09/07 00:17:44;;;;;;;3.53;2.50;;;19.00;67.30;;;;;;5024716;28;20029;-65
2022/09/07 00:20:11;;;;;;;5.82;2.28;;;19.00;67.40;;;;;;5032219;28;20041;-65
2022/09/07 00:22:37;;;;;;;3.75;2.22;;;19.00;67.40;;;;;;5031236;28;20199;-65
2022/09/07 00:25:04;;;;;;;5.47;2.50;;;18.90;67.40;;;;;;5031008;28;20473;-65
2022/09/07 00:27:30;;;;;;;4.30;2.53;;;18.90;67.40;;;;;;5029684;28;20072;-65
2022/09/07 00:29:56;;;;;;;3.28;2.20;;;18.90;67.40;;;;;;5029519;28;20055;-65
2022/09/07 00:32:22;;;;;;;5.47;2.58;;;18.90;67.40;;;;;;5023277;28;20030;-65
2022/09/07 00:34:49;;;;;;;3.75;2.50;;;18.90;67.50;;;;;;5031222;28;20431;-65
2022/09/07 00:37:15;;;;;;;3.97;2.05;;;18.80;67.60;;;;;;5028753;28;20071;-65
2022/09/07 00:39:40;;;;;;;5.60;2.47;;;18.80;67.50;;;;;;5020318;28;20041;-65
2022/09/07 00:42:06;;;;;;;4.35;2.30;;;18.80;67.60;;;;;;5030707;28;20033;-64
2022/09/07 00:45:08;;;;;;;5.55;2.85;;;18.70;67.50;;;;;;5031906;28;20029;-65
2022/09/07 00:48:01;;;;;;;3.58;2.17;;;18.70;67.70;;;;;;5031022;28;20022;-65
2022/09/07 00:50:45;;;;;;;5.28;2.22;;;18.60;67.70;;;;;;5032001;28;20036;-64
2022/09/07 00:53:21;;;;;;;8.00;3.03;;;18.60;67.70;;;;;;5030796;28;20078;-65
2022/09/07 00:55:50;;;;;;;4.78;2.38;;;18.60;68.00;;;;;;5031608;28;20108;-64
2022/09/07 00:58:17;;;;;;;6.25;2.20;;;18.50;67.90;;;;;;5030130;28;20047;-64
2022/09/07 01:00:46;;;;;;;8.52;2.20;;;18.50;68.00;;;;;;5031257;28;20135;-64
2022/09/07 01:03:15;;;;;;;4.47;2.10;;;18.50;68.30;;;;;;5030686;28;20465;-64
2022/09/07 01:05:52;;;;;;;5.45;2.28;;;18.40;68.40;;;;;;5031695;28;20108;-65
2022/09/07 01:08:18;;;;;;;5.00;2.40;;;18.40;68.30;;;;;;5031356;28;20030;-64
2022/09/07 01:10:45;;;;;;;4.32;1.98;;;18.40;68.40;;;;;;5031199;28;20510;-65
2022/09/07 01:13:11;;;;;;;4.63;1.90;;;18.30;68.40;;;;;;5029216;28;20527;-65
2022/09/07 01:15:44;;;;;;;6.45;2.17;;;18.30;68.40;;;;;;5031282;28;20041;-65
2022/09/07 01:18:24;;;;;;;5.53;2.17;;;18.30;68.50;;;;;;5030589;28;20116;-65
2022/09/07 01:21:22;;;;;;;3.22;1.90;;;18.20;68.50;;;;;;5029079;28;20069;-65
2022/09/07 01:24:21;;;;;;;6.32;2.15;;;18.20;68.60;;;;;;5026650;28;20112;-65
2022/09/07 01:27:13;;;;;;;3.55;2.22;;;18.20;68.70;;;;;;5016085;28;20029;-65
2022/09/07 01:29:57;;;;;;;6.80;2.30;;;18.10;68.90;;;;;;4979000;28;20057;-64
2022/09/07 01:32:38;;;;;;;3.72;1.98;;;18.10;68.90;;;;;;5030377;28;20112;-64
2022/09/07 01:35:28;;;;;;;4.60;2.10;;;18.10;69.10;;;;;;5029955;28;20049;-64
2022/09/07 01:38:12;;;;;;;4.72;2.35;;;18.00;69.10;;;;;;5025467;28;20068;-64
2022/09/07 01:40:50;;;;;;;2.38;1.70;;;18.00;69.10;;;;;;5031349;28;20040;-64
2022/09/07 01:43:32;;;;;;;5.45;2.10;;;18.00;69.30;;;;;;5013011;28;20021;-64
2022/09/07 01:46:02;;;;;;;3.40;2.00;;;17.90;69.40;;;;;;5025354;28;20034;-65
2022/09/07 01:48:32;;;;;;;4.53;2.10;;;17.90;69.50;;;;;;5034078;28;20029;-65
2022/09/07 01:51:02;;;;;;;3.78;2.45;;;17.90;69.60;;;;;;5033226;28;20056;-65
2022/09/07 01:53:36;;;;;;;6.78;2.22;;;17.80;69.70;;;;;;5034016;28;20026;-65
2022/09/07 01:56:34;;;;;;;3.75;2.35;;;17.80;69.80;;;;;;5035221;28;20038;-65
2022/09/07 01:59:06;;;;;;;3.83;2.10;;;17.70;69.80;;;;;;5030111;28;20041;-65
2022/09/07 02:01:40;;;;;;;3.25;2.05;;;17.70;70.00;;;;;;5020908;28;20037;-65
2022/09/07 02:04:20;;;;;;;4.40;2.10;;;17.70;70.20;;;;;;5033811;28;20029;-64
2022/09/07 02:07:06;;;;;;;3.95;2.38;;;17.60;70.20;;;;;;5035302;28;20038;-65
2022/09/07 02:09:46;;;;;;;5.82;2.50;;;17.60;70.30;;;;;;5034583;28;20029;-65
2022/09/07 02:12:22;;;;;;;5.13;2.38;;;17.60;70.50;;;;;;5034100;28;20057;-65
2022/09/07 02:14:54;;;;;;;5.38;2.35;;;17.60;70.60;;;;;;5014986;28;20025;-65
2022/09/07 02:17:32;;;;;;;4.13;2.38;;;17.50;70.60;;;;;;5013776;28;20377;-66
2022/09/07 02:20:07;;;;;;;3.50;2.00;;;17.50;70.80;;;;;;5029643;28;20045;-66
2022/09/07 02:22:38;;;;;;;4.10;2.10;;;17.50;71.30;;;;;;5031871;28;20021;-65
2022/09/07 02:25:06;;;;;;;3.92;1.90;;;17.50;70.90;;;;;;5016922;28;20107;-65
2022/09/07 02:27:38;;;;;;;6.85;2.35;;;17.50;70.90;;;;;;5034851;28;20522;-65
2022/09/07 02:30:04;;;;;;;3.30;2.20;;;17.50;71.00;;;;;;5033990;28;20049;-65
2022/09/07 02:32:30;;;;;;;3.58;2.08;;;17.40;71.00;;;;;;5031339;28;20424;-65
2022/09/07 02:34:55;;;;;;;2.92;1.90;;;17.40;71.10;;;;;;5030965;28;20025;-65
2022/09/07 02:37:22;;;;;;;5.82;2.10;;;17.40;71.30;;;;;;5024396;28;20060;-65
2022/09/07 02:39:49;;;;;;;4.35;2.35;;;17.40;71.30;;;;;;5027358;28;20029;-66
2022/09/07 02:42:16;;;;;;;3.63;2.25;;;17.40;71.50;;;;;;5032887;28;20041;-65
2022/09/07 02:44:44;;;;;;;3.65;2.28;;;17.30;71.50;;;;;;5034092;28;20018;-65
2022/09/07 02:47:22;;;;;;;4.32;2.03;;;17.30;71.50;;;;;;5032743;28;20033;-65
2022/09/07 02:50:26;;;;;;;4.75;2.20;;;17.30;71.60;;;;;;5033550;28;20392;-65
2022/09/07 02:53:12;;;;;;;2.55;1.83;;;17.30;71.80;;;;;;4986267;28;20037;-65
2022/09/07 02:56:08;;;;;;;5.63;2.20;;;17.30;71.80;;;;;;5033666;28;20388;-65
2022/09/07 02:58:48;;;;;;;4.10;1.88;;;17.30;71.90;;;;;;5033426;28;20095;-65
2022/09/07 03:01:35;;;;;;;5.85;2.28;;;17.20;71.90;;;;;;5030071;28;20438;-65
2022/09/07 03:04:22;;;;;;;5.60;2.28;;;17.20;72.00;;;;;;5033869;28;20025;-65
2022/09/07 03:06:53;;;;;;;5.82;2.13;;;17.20;72.20;;;;;;5029300;28;20380;-65
2022/09/07 03:09:23;;;;;;;5.43;2.45;;;17.10;72.40;;;;;;5014196;28;20548;-65
2022/09/07 03:11:49;;;;;;;3.17;2.28;;;17.10;72.60;;;;;;5014825;28;20373;-66
2022/09/07 03:14:14;;;;;;;7.22;2.28;;;17.10;72.60;;;;;;5021334;28;20029;-66
2022/09/07 03:16:40;;;;;;;5.13;2.47;;;17.10;72.60;;;;;;5032631;28;20025;-66
2022/09/07 03:19:06;;;;;;;4.85;2.45;;;17.10;73.00;;;;;;5016063;28;20018;-64
2022/09/07 03:21:32;;;;;;;4.30;2.08;;;17.10;73.10;;;;;;5030916;28;20041;-65
2022/09/07 03:23:57;;;;;;;5.10;2.20;;;17.10;73.20;;;;;;5033522;28;20030;-65
2022/09/07 03:26:24;;;;;;;3.75;2.20;;;17.10;73.30;;;;;;5032304;28;20017;-65
2022/09/07 03:28:50;;;;;;;5.30;2.45;;;17.10;73.50;;;;;;5031157;28;20049;-65
2022/09/07 03:31:16;;;;;;;4.88;2.20;;;17.10;73.50;;;;;;5032378;28;20029;-64
2022/09/07 03:33:41;;;;;;;5.10;3.10;;;17.00;73.50;;;;;;5017815;28;20412;-64
2022/09/07 03:36:07;;;;;;;7.13;3.10;;;17.00;73.50;;;;;;5025284;28;20079;-65
2022/09/07 03:38:34;;;;;;;3.78;2.17;;;17.00;73.60;;;;;;5011212;28;20084;-65
2022/09/07 03:41:04;;;;;;;6.82;2.17;;;17.00;73.70;;;;;;5023673;28;20041;-65
2022/09/07 03:43:31;;;;;;;4.22;2.30;;;17.00;73.70;;;;;;5031038;28;20025;-66
2022/09/07 03:45:59;;;;;;;5.25;2.85;;;17.00;73.70;;;;;;5032007;28;20026;-65
2022/09/07 03:48:26;;;;;;;4.85;2.25;;;16.90;73.80;;;;;;5031372;28;20469;-66
2022/09/07 03:51:02;;;;;;;4.50;3.05;;;16.90;73.80;;;;;;5033284;28;20129;-66
2022/09/07 03:53:33;;;;;;;3.58;2.20;;;16.90;73.90;;;;;;5032636;28;20416;-65
2022/09/07 03:56:04;;;;;;;6.70;2.80;;;16.90;74.00;;;;;;5032936;28;20092;-66
2022/09/07 03:58:32;;;;;;;4.70;2.17;;;16.80;74.10;;;;;;5031640;28;20029;-66
2022/09/07 04:00:59;;;;;;;3.40;2.17;;;16.80;74.20;;;;;;5022900;28;20030;-66
2022/09/07 04:03:25;;;;;;;4.40;2.40;;;16.80;74.20;;;;;;5032860;28;20033;-65
2022/09/07 04:05:50;;;;;;;4.45;2.40;;;16.80;74.30;;;;;;5032058;28;20088;-66
2022/09/07 04:08:16;;;;;;;4.82;2.50;;;16.80;74.50;;;;;;5032108;28;20036;-66
2022/09/07 04:10:42;;;;;;;8.40;2.75;;;16.70;74.50;;;;;;5031525;28;20029;-66
2022/09/07 04:13:08;;;;;;;4.30;2.70;;;16.70;74.60;;;;;;5031200;28;20068;-65
2022/09/07 04:15:33;;;;;;;6.57;2.95;;;16.70;74.70;;;;;;5032414;28;20056;-65
2022/09/07 04:18:00;;;;;;;5.40;2.60;;;16.60;74.90;;;;;;5030209;28;20376;-65
2022/09/07 04:20:26;;;;;;;5.18;2.80;;;16.60;74.90;;;;;;5028813;28;20045;-65
2022/09/07 04:22:51;;;;;;;4.13;2.58;;;16.70;75.10;;;;;;5029819;28;20111;-65
2022/09/07 04:25:17;;;;;;;5.18;2.60;;;16.60;75.10;;;;;;5030535;28;20152;-65
2022/09/07 04:27:44;;;;;;;8.57;3.20;;;16.60;75.10;;;;;;5031655;28;20029;-65
2022/09/07 04:30:10;;;;;;;3.72;2.15;;;16.60;75.20;;;;;;5028905;28;20435;-66
2022/09/07 04:32:36;;;;;;;6.22;3.15;;;16.60;75.20;;;;;;5030666;28;20034;-65
2022/09/07 04:35:02;;;;;;;4.25;2.38;;;16.60;75.50;;;;;;5028656;28;20033;-66
2022/09/07 04:37:29;;;;;;;4.97;2.42;;;16.60;75.50;;;;;;5020292;28;20030;-65
2022/09/07 04:39:54;;;;;;;4.20;2.30;;;16.60;75.70;;;;;;5024007;28;20026;-65
2022/09/07 04:42:20;;;;;;;5.07;2.60;;;16.60;75.60;;;;;;5022284;28;20080;-66
2022/09/07 04:44:48;;;;;;;4.22;2.40;;;16.60;75.50;;;;;;5031919;28;20033;-66
2022/09/07 04:47:15;;;;;;;4.47;2.42;;;16.60;75.80;;;;;;5037193;28;20029;-65
2022/09/07 04:49:40;;;;;;;4.50;2.63;;;16.60;76.00;;;;;;5034043;28;20087;-66
2022/09/07 04:52:06;;;;;;;8.95;2.38;;;16.50;76.00;;;;;;5037259;28;20029;-65
2022/09/07 04:54:31;;;;;;;4.13;2.35;;;16.50;76.10;;;;;;5034450;28;20045;-65
2022/09/07 04:56:57;;;;;;;6.18;2.63;;;16.50;76.40;;;;;;5041286;28;20033;-65
2022/09/07 04:59:22;;;;;;;9.70;3.35;;;16.50;76.40;;;;;;5039247;28;20025;-65
2022/09/07 05:01:48;;;;;;;6.10;3.53;;;16.50;76.20;;;;;;5045035;28;20051;-66
2022/09/07 05:04:14;;;;;;;4.07;2.28;;;16.50;76.30;;;;;;5044572;28;20014;-66
2022/09/07 05:06:39;;;;;;;4.57;2.25;;;16.50;76.40;;;;;;5046634;28;20029;-66
2022/09/07 05:09:05;;;;;;;6.65;2.60;;;16.50;76.30;;;;;;5049149;28;20030;-65
2022/09/07 05:11:32;;;;;;;6.53;2.88;;;16.50;76.50;;;;;;5047463;28;20040;-66
2022/09/07 05:13:59;;;;;;;5.15;2.90;;;16.50;76.60;;;;;;5023466;28;20032;-66
2022/09/07 05:16:26;;;;;;;4.05;2.55;;;16.50;76.90;;;;;;5029342;28;20033;-67
2022/09/07 05:18:54;;;;;;;5.93;2.72;;;16.50;77.30;;;;;;5038084;28;20029;-67
2022/09/07 05:21:23;;;;;;;5.80;2.78;;;16.50;76.80;;;;;;5031948;28;20543;-66
2022/09/07 05:23:50;;;;;;;12.90;3.40;;;16.60;77.00;;;;;;5025921;28;20113;-67
2022/09/07 05:26:18;;;;;;;5.25;2.58;;;16.50;76.90;;;;;;5035787;28;20021;-66
2022/09/07 05:28:44;;;;;;;5.55;2.70;;;16.60;76.90;;;;;;5033549;28;20136;-66
2022/09/07 05:31:13;;;;;;;6.25;3.90;;;16.50;77.10;;;;;;5034687;28;20109;-66
2022/09/07 05:33:39;;;;;;;4.20;2.38;;;16.60;77.30;;;;;;5038576;28;20029;-65
2022/09/07 05:36:06;;;;;;;4.57;2.60;;;16.60;77.30;;;;;;5020990;28;20037;-64
2022/09/07 05:38:35;;;;;;;7.00;2.25;;;16.60;77.30;;;;;;5018737;28;20030;-65
2022/09/07 05:41:12;;;;;;;12.93;3.70;;;16.60;77.60;;;;;;5019964;28;20068;-65
2022/09/07 05:43:42;;;;;;;9.90;4.25;;;16.60;77.50;;;;;;5036586;28;20481;-65
2022/09/07 05:46:08;;;;;;;7.75;3.03;;;16.60;77.60;;;;;;5034187;28;20037;-65
2022/09/07 05:48:34;;;;;;;5.78;2.33;;;16.60;77.80;;;;;;5025354;28;20021;-65
2022/09/07 05:51:00;;;;;;;5.68;2.80;;;16.70;77.80;;;;;;5017471;28;20037;-65
2022/09/07 05:53:26;;;;;;;5.07;2.47;;;16.70;77.70;;;;;;5034559;28;20026;-65
2022/09/07 05:55:52;;;;;;;6.18;2.95;;;16.70;77.70;;;;;;5034526;28;20083;-65
2022/09/07 05:58:18;;;;;;;5.38;2.53;;;16.80;77.80;;;;;;5048283;28;20017;-65
2022/09/07 06:00:44;;;;;;;4.93;2.95;;;16.80;77.60;;;;;;5020157;28;20116;-65
2022/09/07 06:03:10;;;;;;;6.30;2.92;;;16.80;78.10;;;;;;5031621;28;20116;-65
2022/09/07 06:05:36;;;;;;;5.88;2.72;;;16.80;77.80;;;;;;5034775;28;20083;-65
2022/09/07 06:08:03;;;;;;;7.72;3.13;;;16.90;77.80;;;;;;5035429;28;20384;-65
2022/09/07 06:10:34;;;;;;;5.60;3.00;;;16.90;77.80;;;;;;5033578;28;20018;-65
2022/09/07 06:12:59;;;;;;;4.65;2.47;;;16.90;77.80;;;;;;5035236;28;20113;-65
2022/09/07 06:15:25;;;;;;;7.55;3.38;;;16.90;77.90;;;;;;5034769;28;20029;-65
2022/09/07 06:17:51;;;;;;;5.85;3.00;;;16.90;78.20;;;;;;5033511;28;20033;-65
2022/09/07 06:20:17;;;;;;;6.63;3.28;;;17.00;78.10;;;;;;5034437;28;20036;-65
2022/09/07 06:22:43;;;;;;;5.05;2.70;;;17.00;77.90;;;;;;5032603;28;20409;-66
2022/09/07 06:25:09;;;;;;;5.82;3.08;;;17.10;78.00;;;;;;5016136;28;20025;-64
2022/09/07 06:27:34;;;;;;;6.70;3.13;;;17.10;77.80;;;;;;5029779;28;20053;-65
2022/09/07 06:30:00;;;;;;;8.20;3.13;;;17.20;77.90;;;;;;5014257;28;20056;-64
2022/09/07 06:32:26;;;;;;;4.63;2.88;;;17.20;78.10;;;;;;5025644;28;20033;-64
2022/09/07 06:34:51;;;;;;;7.93;2.80;;;17.30;78.10;;;;;;5033707;28;20026;-65
2022/09/07 06:37:17;;;;;;;8.75;2.83;;;17.30;77.80;;;;;;5013511;28;20050;-64
2022/09/07 06:39:42;;;;;;;8.95;3.15;;;17.40;77.70;;;;;;5027721;28;20064;-63
2022/09/07 06:42:09;;;;;;;5.03;2.75;;;17.40;77.80;;;;;;5030474;28;20025;-64
2022/09/07 06:44:35;;;;;;;6.57;3.00;;;17.40;77.90;;;;;;5029278;28;20109;-63
2022/09/07 06:47:01;;;;;;;4.70;2.80;;;17.50;78.10;;;;;;5021057;28;20067;-64
2022/09/07 06:49:27;;;;;;;6.80;3.22;;;17.50;78.40;;;;;;5029362;28;20018;-64
2022/09/07 06:51:53;;;;;;;7.03;3.38;;;17.60;78.50;;;;;;5020263;28;20029;-64
2022/09/07 06:54:18;;;;;;;6.53;3.22;;;17.70;79.00;;;;;;5023865;28;20156;-64
2022/09/07 06:56:44;;;;;;;6.85;3.42;;;17.80;78.80;;;;;;5023409;28;20103;-64
2022/09/07 06:59:10;;;;;;;5.45;3.20;;;17.80;78.70;;;;;;5029611;28;20064;-65
2022/09/07 07:01:35;;;;;;;8.82;2.97;;;17.90;78.40;;;;;;5015319;28;20044;-65
2022/09/07 07:04:01;;;;;;;6.00;3.70;;;17.90;78.40;;;;;;5033379;28;20025;-65
2022/09/07 07:06:34;;;;;;;5.38;3.13;;;18.00;78.30;;;;;;5026234;28;20032;-64
2022/09/07 07:09:00;;;;;;;9.77;3.40;;;18.00;78.80;;;;;;5018043;28;20548;-65
2022/09/07 07:11:25;;;;;;;5.45;3.13;;;18.10;78.50;;;;;;5013706;28;20068;-65
2022/09/07 07:13:51;;;;;;;7.60;3.45;;;18.20;78.60;;;;;;5026755;28;20029;-64
2022/09/07 07:16:17;;;;;;;6.03;3.42;;;18.20;78.40;;;;;;5014488;28;20034;-65
2022/09/07 07:18:43;;;;;;;8.13;3.25;;;18.20;78.30;;;;;;5016333;28;20084;-64
2022/09/07 07:21:11;;;;;;;9.90;3.83;;;18.30;78.50;;;;;;5019254;28;20041;-65
2022/09/07 07:23:37;;;;;;;4.93;3.17;;;18.40;78.50;;;;;;5026429;28;20033;-65
2022/09/07 07:26:18;;;;;;;7.03;3.33;;;18.50;78.40;;;;;;5030085;28;20037;-67
2022/09/07 07:28:46;;;;;;;8.40;3.63;;;18.50;78.70;;;;;;5023046;28;20045;-65
2022/09/07 07:31:14;;;;;;;7.45;3.78;;;18.60;78.40;;;;;;5019040;28;20559;-65
2022/09/07 07:33:40;;;;;;;9.02;3.55;;;18.60;78.40;;;;;;5017995;28;20030;-65
2022/09/07 07:36:18;;;;;;;5.90;3.45;;;18.70;78.30;;;;;;5017134;28;20021;-66
2022/09/07 07:38:46;;;;;;;7.75;3.95;;;18.70;78.20;;;;;;5014369;28;20512;-66
2022/09/07 07:41:13;;;;;;;5.20;3.58;;;18.70;78.00;;;;;;5019931;28;20034;-66
2022/09/07 07:43:39;;;;;;;6.78;3.30;;;18.80;78.20;;;;;;5031136;28;20026;-67
2022/09/07 07:46:06;;;;;;;7.43;3.40;;;18.80;78.30;;;;;;5024282;28;20075;-66
2022/09/07 07:48:33;;;;;;;8.93;3.53;;;18.90;78.40;;;;;;5025918;28;20036;-66
2022/09/07 07:51:08;;;;;;;7.95;3.75;;;18.90;78.50;;;;;;5023138;28;20029;-66
2022/09/07 07:53:36;;;;;;;7.18;4.00;;;19.00;78.40;;;;;;5018492;28;20022;-66
2022/09/07 07:56:03;;;;;;;7.35;3.90;;;19.10;78.60;;;;;;5024655;28;20040;-66
2022/09/07 07:58:29;;;;;;;8.52;4.00;;;19.20;78.60;;;;;;5024146;28;20029;-66
2022/09/07 08:01:01;;;;;;;7.20;3.60;;;19.20;78.50;;;;;;5031153;28;20135;-66
2022/09/07 08:03:28;;;;;;;6.47;3.80;;;19.30;78.50;;;;;;5030884;28;20476;-65
2022/09/07 08:05:54;;;;;;;7.82;4.00;;;19.30;78.50;;;;;;5024669;28;20037;-67
2022/09/07 08:08:20;;;;;;;8.13;4.85;;;19.40;78.40;;;;;;5022667;28;20025;-66
2022/09/07 08:10:46;;;;;;;5.82;3.55;;;19.40;78.50;;;;;;5017466;28;20033;-66
2022/09/07 08:13:13;;;;;;;9.88;4.07;;;19.50;78.70;;;;;;5023202;28;20025;-66
2022/09/07 08:15:46;;;;;;;5.65;4.03;;;19.60;78.80;;;;;;5041170;28;20061;-66
2022/09/07 08:18:16;;;;;;;11.02;4.30;;;19.60;78.60;;;;;;5034685;28;20092;-66
2022/09/07 08:20:42;;;;;;;8.60;3.75;;;19.80;78.80;;;;;;5032413;28;20033;-66
2022/09/07 08:23:09;;;;;;;5.50;3.80;;;19.80;78.60;;;;;;5031148;28;20107;-66
2022/09/07 08:25:35;;;;;;;7.03;4.07;;;19.90;78.80;;;;;;5002690;28;20030;-66
2022/09/07 08:28:02;;;;;;;6.82;4.22;;;19.90;78.60;;;;;;5030357;28;20503;-67
2022/09/07 08:30:29;;;;;;;5.72;3.92;;;20.00;78.60;;;;;;5004347;28;20116;-66
2022/09/07 08:32:54;;;;;;;6.80;4.50;;;20.10;78.40;;;;;;5038978;28;20037;-67
2022/09/07 08:35:20;;;;;;;10.48;4.15;;;20.10;78.20;;;;;;5020311;28;20025;-66
2022/09/07 08:37:46;;;;;;;8.30;5.15;;;20.20;78.10;;;;;;5019240;28;20025;-66
2022/09/07 08:40:18;;;;;;;8.80;4.13;;;20.20;78.00;;;;;;5026133;28;20095;-66
2022/09/07 08:42:55;;;;;;;6.75;4.15;;;20.20;78.00;;;;;;5019495;28;20026;-66
2022/09/07 08:45:36;;;;;;;5.07;3.50;;;20.30;78.20;;;;;;5024479;28;20030;-66
2022/09/07 08:48:04;;;;;;;7.50;3.88;;;20.30;78.30;;;;;;5028382;28;20388;-66
2022/09/07 08:50:51;;;;;;;7.80;4.40;;;20.40;78.50;;;;;;5010410;28;20029;-66
2022/09/07 08:53:19;;;;;;;6.05;4.30;;;20.40;78.40;;;;;;5025339;28;20383;-66
2022/09/07 08:55:57;;;;;;;9.35;4.68;;;20.50;78.20;;;;;;5023446;28;20025;-66
2022/09/07 08:58:37;;;;;;;9.15;4.22;;;20.60;78.30;;;;;;5028756;28;20479;-65
2022/09/07 09:01:10;;;;;;;6.47;4.30;;;20.70;78.30;;;;;;5015147;28;20069;-65
2022/09/07 09:03:36;;;;;;;6.30;4.63;;;20.80;78.50;;;;;;5013684;28;20029;-66
2022/09/07 09:06:26;;;;;;;8.10;4.68;;;20.80;78.20;;;;;;5031461;28;20564;-66
2022/09/07 09:09:29;;;;;;;8.00;4.50;;;20.90;78.10;;;;;;5025731;28;20500;-66
2022/09/07 09:12:13;;;;;;;7.25;4.35;;;21.00;78.00;;;;;;5019543;28;20527;-66
2022/09/07 09:15:12;;;;;;;10.27;4.43;;;21.10;78.20;;;;;;5025020;28;20469;-66
2022/09/07 09:17:54;;;;;;;9.70;4.47;;;21.20;78.30;;;;;;5023670;28;20112;-66
2022/09/07 09:20:28;;;;;;;7.97;4.35;;;21.30;77.90;;;;;;5013912;28;20500;-66
2022/09/07 09:23:01;;;;;;;9.73;4.07;;;21.40;77.90;;;;;;5028859;28;20033;-66
2022/09/07 09:25:32;;;;;;;5.78;4.57;;;21.50;77.90;;;;;;5031425;28;20492;-66
2022/09/07 09:27:58;;;;;;;7.07;4.10;;;21.60;78.20;;;;;;5022027;28;20095;-66
2022/09/07 09:30:25;;;;;;;7.95;5.03;;;21.70;77.80;;;;;;5023093;28;20465;-66
2022/09/07 09:33:11;;;;;;;7.03;4.20;;;21.70;77.50;;;;;;5031311;28;20080;-66
2022/09/07 09:35:38;;;;;;;6.55;4.63;;;21.80;77.70;;;;;;5030238;28;20026;-65
2022/09/07 09:38:04;;;;;;;5.65;4.32;;;21.80;77.70;;;;;;5031467;28;20038;-65
2022/09/07 09:40:32;;;;;;;6.68;4.78;;;21.90;77.70;;;;;;5031112;28;20110;-66
2022/09/07 09:43:00;;;;;;;6.78;4.78;;;21.90;77.80;;;;;;5031108;28;20022;-65
2022/09/07 09:45:29;;;;;;;7.15;4.53;;;22.00;78.10;;;;;;5026168;28;20025;-65
2022/09/07 09:47:56;;;;;;;6.65;5.40;;;22.10;78.40;;;;;;5025889;28;20033;-66
2022/09/07 09:50:36;;;;;;;8.00;4.47;;;22.30;78.30;;;;;;5030602;28;20033;-66
2022/09/07 09:53:04;;;;;;;7.57;5.18;;;22.30;77.80;;;;;;5031390;28;20036;-65
2022/09/07 09:55:35;;;;;;;7.88;4.78;;;22.40;78.00;;;;;;5031136;28;20029;-65
2022/09/07 09:58:25;;;;;;;7.13;5.32;;;22.50;78.10;;;;;;5029846;28;20044;-65
2022/09/07 10:00:57;;;;;;;6.30;4.85;;;22.60;78.20;;;;;;5015906;28;20034;-66
2022/09/07 10:03:25;;;;;;;6.50;4.93;;;22.70;78.50;;;;;;5030064;28;20026;-65
2022/09/07 10:05:51;;;;;;;5.78;4.80;;;22.70;78.50;;;;;;5012323;28;20030;-65
2022/09/07 10:08:24;;;;;;;9.30;5.50;;;22.80;78.60;;;;;;5031345;28;20036;-66
2022/09/07 10:10:56;;;;;;;6.85;5.10;;;22.90;78.00;;;;;;5025832;28;20040;-65
2022/09/07 10:13:26;;;;;;;9.27;5.70;;;23.00;78.50;;;;;;5031593;28;20025;-66
2022/09/07 10:15:55;;;;;;;6.88;5.55;;;23.10;78.00;;;;;;5034828;28;20108;-65
2022/09/07 10:18:53;;;;;;;9.27;5.65;;;23.20;78.10;;;;;;5032588;28;20088;-65
2022/09/07 10:21:23;;;;;;;6.30;4.97;;;23.30;78.00;;;;;;5034110;28;20041;-65
2022/09/07 10:24:14;;;;;;;7.90;5.03;;;23.40;77.80;;;;;;5014887;28;20072;-65
2022/09/07 10:26:43;;;;;;;8.48;5.05;;;23.50;78.00;;;;;;5008093;28;20037;-65
2022/09/07 10:29:14;;;;;;;9.45;5.50;;;23.60;77.80;;;;;;5015029;28;20679;-66
2022/09/07 10:31:53;;;;;;;7.20;5.20;;;23.70;78.00;;;;;;5016961;28;20037;-66
2022/09/07 10:34:29;;;;;;;9.35;6.50;;;23.80;78.00;;;;;;5034301;28;20524;-65
2022/09/07 10:37:03;;;;;;;9.27;6.25;;;23.80;77.90;;;;;;5034233;28;20492;-66
2022/09/07 10:39:40;;;;;;;6.10;5.50;;;23.90;77.70;;;;;;5000869;28;20030;-66
2022/09/07 10:42:18;;;;;;;7.93;5.68;;;23.90;77.70;;;;;;5027182;28;20037;-66
2022/09/07 10:44:55;;;;;;;7.97;5.68;;;24.00;78.30;;;;;;5034020;28;20035;-65
2022/09/07 10:47:23;;;;;;;8.45;5.88;;;24.10;78.00;;;;;;5033417;28;20223;-66
2022/09/07 10:49:51;;;;;;;11.35;5.68;;;24.20;77.70;;;;;;5032578;28;20037;-66
2022/09/07 10:52:36;;;;;;;8.85;6.13;;;24.30;77.90;;;;;;5034125;28;20057;-66
2022/09/07 10:55:25;;;;;;;6.85;5.38;;;24.40;77.70;;;;;;5034096;28;20057;-66
2022/09/07 10:57:58;;;;;;;9.43;6.20;;;24.50;77.30;;;;;;5031971;28;20096;-66
2022/09/07 11:00:31;;;;;;;8.70;5.65;;;24.50;77.40;;;;;;5021796;28;20064;-65
2022/09/07 11:03:08;;;;;;;7.72;5.50;;;24.60;76.90;;;;;;5027771;28;20065;-66
2022/09/07 11:06:07;;;;;;;7.78;5.93;;;24.70;77.20;;;;;;5033078;28;20025;-66
2022/09/07 11:08:42;;;;;;;8.20;5.70;;;24.70;77.10;;;;;;5031521;28;20044;-66
2022/09/07 11:11:21;;;;;;;6.97;5.80;;;24.80;77.10;;;;;;5032628;28;20033;-66
2022/09/07 11:13:51;;;;;;;9.55;5.50;;;24.90;77.30;;;;;;5031633;28;20080;-66
2022/09/07 11:16:22;;;;;;;13.02;5.68;;;24.90;76.80;;;;;;5032728;28;20014;-66
2022/09/07 11:18:59;;;;;;;8.20;5.95;;;25.00;76.80;;;;;;5013571;28;20038;-66
2022/09/07 11:21:35;;;;;;;6.70;5.93;;;25.00;76.80;;;;;;5015815;28;20101;-66
2022/09/07 11:24:19;;;;;;;9.57;5.70;;;25.10;77.10;;;;;;5013656;28;20095;-65
2022/09/07 11:26:52;;;;;;;7.88;5.70;;;25.10;76.80;;;;;;5019863;28;20329;-66
2022/09/07 11:29:33;;;;;;;11.82;5.75;;;25.20;76.90;;;;;;5033070;28;20081;-65
2022/09/07 11:32:27;;;;;;;7.90;5.78;;;25.30;75.90;;;;;;5032044;28;20032;-65
2022/09/07 11:35:04;;;;;;;6.68;5.63;;;25.40;75.80;;;;;;5020466;28;20029;-65
2022/09/07 11:37:40;;;;;;;6.20;4.93;;;25.40;75.90;;;;;;5021840;28;20060;-65
2022/09/07 11:40:20;;;;;;;7.22;6.35;;;25.50;75.40;;;;;;5031622;28;20116;-65
2022/09/07 11:43:09;;;;;;;6.95;5.47;;;25.50;75.40;;;;;;5031782;28;20083;-65
2022/09/07 11:46:04;;;;;;;8.00;5.30;;;25.60;75.60;;;;;;5047866;28;20047;-65
2022/09/07 11:48:42;;;;;;;6.55;5.55;;;25.70;75.40;;;;;;5007451;28;20029;-65
2022/09/07 11:51:17;;;;;;;6.88;5.97;;;25.70;75.30;;;;;;5028011;28;20129;-65
2022/09/07 11:53:49;;;;;;;6.43;5.53;;;25.70;75.20;;;;;;5024362;28;20140;-65
2022/09/07 11:56:25;;;;;;;7.38;5.70;;;25.80;75.10;;;;;;5030422;28;20038;-64
2022/09/07 11:59:06;;;;;;;6.68;5.78;;;25.80;74.70;;;;;;5031074;28;20032;-64
2022/09/07 12:02:00;;;;;;;9.10;5.70;;;25.80;75.20;;;;;;5023583;28;20033;-64
2022/09/07 12:05:00;;;;;;;6.97;5.70;;;25.80;75.10;;;;;;5024374;28;20022;-64
2022/09/07 12:07:35;;;;;;;10.38;8.75;;;25.80;75.10;;;;;;5027915;28;20064;-65
2022/09/07 12:10:23;;;;;;;7.28;6.10;;;25.90;75.80;;;;;;5025340;28;20033;-65
2022/09/07 12:13:02;;;;;;;13.73;10.48;;;26.00;75.60;;;;;;5029143;28;20469;-65
2022/09/07 12:15:45;;;;;;;34.13;25.70;;;26.00;75.40;;;;;;5029277;28;20033;-64
2022/09/07 12:18:43;;;;;;;9.43;7.28;;;26.00;75.70;;;;;;5025581;28;20077;-65
2022/09/07 12:21:49;;;;;;;8.18;6.72;;;26.10;76.30;;;;;;4989631;28;20129;-65
2022/09/07 12:24:33;;;;;;;;;;;26.20;76.80;;;;;;5008087;28;20065;-66
2022/09/07 12:27:00;;;;;;;10.17;7.43;;;26.40;76.40;;;;;;5020470;28;19913;-66
2022/09/07 12:29:28;;;;;;;15.30;11.32;;;26.40;76.00;;;;;;5019040;28;20562;-65
2022/09/07 12:31:56;;;;;;;10.27;7.57;;;26.50;76.30;;;;;;5021865;28;20053;-65
2022/09/07 12:34:30;;;;;;;7.15;6.00;;;26.60;76.00;;;;;;5030013;28;20025;-64
2022/09/07 12:37:01;;;;;;;10.90;7.70;;;26.80;75.60;;;;;;5015787;28;20022;-65
2022/09/07 12:39:31;;;;;;;11.15;6.85;;;26.80;75.30;;;;;;5018501;28;20377;-64
2022/09/07 12:42:09;;;;;;;8.98;6.18;;;26.80;75.70;;;;;;5022889;28;20034;-65
2022/09/07 12:44:36;;;;;;;11.02;7.78;;;26.80;74.50;;;;;;5012148;28;20026;-65
2022/09/07 12:47:24;;;;;;;6.60;5.35;;;26.80;74.30;;;;;;5019905;28;20066;-65
2022/09/07 12:50:10;;;;;;;9.23;5.80;;;26.80;74.20;;;;;;5028692;28;20040;-65
2022/09/07 12:52:41;;;;;;;6.45;5.68;;;26.80;75.10;;;;;;5012171;28;20120;-65
2022/09/07 12:55:13;;;;;;;8.82;6.15;;;26.80;74.90;;;;;;5027998;28;20025;-65
2022/09/07 12:57:57;;;;;;;6.93;5.60;;;26.80;75.20;;;;;;5029740;28;20060;-65
2022/09/07 13:00:33;;;;;;;7.68;6.07;;;26.80;75.00;;;;;;5021622;28;20519;-65
2022/09/07 13:03:07;;;;;;;7.43;6.18;;;26.80;74.90;;;;;;5027507;28;20041;-66
2022/09/07 13:05:52;;;;;;;10.65;6.20;;;26.80;75.30;;;;;;5029127;28;20018;-66
2022/09/07 13:09:06;;;;;;;11.40;6.78;;;26.70;75.10;;;;;;5023924;28;20038;-66
2022/09/07 13:11:37;;;;;;;7.85;6.35;;;26.70;75.40;;;;;;5029241;28;20056;-65